sensor_id;sensor_type;location;lat;lon;timestamp;pressure;altitude;pressure_sealevel;temperature;humidity
70323;BME280;57735;56.264;43.898;2023-03-25T00:01:32;99634.56;;;6.20;81.88
70323;BME280;57735;56.264;43.898;2023-03-25T00:04:03;99629.28;;;6.20;81.92
70323;BME280;57735;56.264;43.898;2023-03-25T00:06:34;99633.88;;;6.18;81.96
70323;BME280;57735;56.264;43.898;2023-03-25T00:09:04;99633.19;;;6.16;81.98
70323;BME280;57735;56.264;43.898;2023-03-25T00:11:35;99629.00;;;6.13;81.91
70323;BME280;57735;56.264;43.898;2023-03-25T00:14:07;99631.78;;;6.12;81.96
70323;BME280;57735;56.264;43.898;2023-03-25T00:16:38;99625.81;;;6.10;82.10
70323;BME280;57735;56.264;43.898;2023-03-25T00:19:09;99629.44;;;6.09;82.25
70323;BME280;57735;56.264;43.898;2023-03-25T00:21:39;99630.94;;;6.11;82.25
70323;BME280;57735;56.264;43.898;2023-03-25T00:24:11;99634.56;;;6.10;82.20
70323;BME280;57735;56.264;43.898;2023-03-25T00:26:44;99637.09;;;6.12;82.12
70323;BME280;57735;56.264;43.898;2023-03-25T00:29:15;99638.75;;;6.13;82.13
70323;BME280;57735;56.264;43.898;2023-03-25T00:31:48;99635.97;;;6.14;82.12
70323;BME280;57735;56.264;43.898;2023-03-25T00:34:18;99629.84;;;6.14;82.18
70323;BME280;57735;56.264;43.898;2023-03-25T00:36:49;99648.91;;;6.17;82.09
70323;BME280;57735;56.264;43.898;2023-03-25T00:39:22;99653.22;;;6.18;81.94
70323;BME280;57735;56.264;43.898;2023-03-25T00:41:53;99646.13;;;6.19;81.94
70323;BME280;57735;56.264;43.898;2023-03-25T00:44:26;99643.16;;;6.22;81.79
70323;BME280;57735;56.264;43.898;2023-03-25T00:46:57;99644.84;;;6.23;81.73
70323;BME280;57735;56.264;43.898;2023-03-25T00:49:27;99658.22;;;6.21;81.67
70323;BME280;57735;56.264;43.898;2023-03-25T00:51:58;99656.41;;;6.22;81.71
70323;BME280;57735;56.264;43.898;2023-03-25T00:54:29;99650.44;;;6.20;81.66
70323;BME280;57735;56.264;43.898;2023-03-25T00:57:03;99643.16;;;6.22;81.59
70323;BME280;57735;56.264;43.898;2023-03-25T00:59:33;99647.63;;;6.21;81.48
70323;BME280;57735;56.264;43.898;2023-03-25T01:02:04;99648.78;;;6.19;81.44
70323;BME280;57735;56.264;43.898;2023-03-25T01:04:36;99652.41;;;6.18;81.34
70323;BME280;57735;56.264;43.898;2023-03-25T01:07:08;99650.44;;;6.20;81.28
70323;BME280;57735;56.264;43.898;2023-03-25T01:09:38;99643.47;;;6.19;81.07
70323;BME280;57735;56.264;43.898;2023-03-25T01:12:11;99645.16;;;6.20;81.08
70323;BME280;57735;56.264;43.898;2023-03-25T01:14:43;99644.97;;;6.21;80.95
70323;BME280;57735;56.264;43.898;2023-03-25T01:17:14;99637.72;;;6.23;80.85
70323;BME280;57735;56.264;43.898;2023-03-25T01:19:45;99648.03;;;6.26;80.65
70323;BME280;57735;56.264;43.898;2023-03-25T01:22:15;99650.69;;;6.26;80.45
70323;BME280;57735;56.264;43.898;2023-03-25T01:24:46;99646.91;;;6.29;80.30
70323;BME280;57735;56.264;43.898;2023-03-25T01:27:16;99654.16;;;6.27;80.32
70323;BME280;57735;56.264;43.898;2023-03-25T01:29:47;99651.53;;;6.27;80.07
70323;BME280;57735;56.264;43.898;2023-03-25T01:32:17;99640.38;;;6.23;79.97
70323;BME280;57735;56.264;43.898;2023-03-25T01:34:48;99653.09;;;6.20;80.08
70323;BME280;57735;56.264;43.898;2023-03-25T01:37:18;99658.94;;;6.14;80.20
70323;BME280;57735;56.264;43.898;2023-03-25T01:39:49;99645.72;;;6.04;80.18
70323;BME280;57735;56.264;43.898;2023-03-25T01:42:20;99644.91;;;5.94;80.38
70323;BME280;57735;56.264;43.898;2023-03-25T01:47:23;99637.81;;;5.75;80.36
70323;BME280;57735;56.264;43.898;2023-03-25T01:49:58;99645.75;;;5.66;80.83
70323;BME280;57735;56.264;43.898;2023-03-25T01:52:29;99652.16;;;5.53;81.01
70323;BME280;57735;56.264;43.898;2023-03-25T01:54:59;99653.00;;;5.44;81.35
70323;BME280;57735;56.264;43.898;2023-03-25T01:57:30;99645.06;;;5.35;81.48
70323;BME280;57735;56.264;43.898;2023-03-25T02:00:01;99649.63;;;5.23;81.74
70323;BME280;57735;56.264;43.898;2023-03-25T02:02:37;99657.28;;;5.16;82.09
70323;BME280;57735;56.264;43.898;2023-03-25T02:05:13;99664.09;;;5.09;82.40
70323;BME280;57735;56.264;43.898;2023-03-25T02:07:47;99666.28;;;5.04;82.75
70323;BME280;57735;56.264;43.898;2023-03-25T02:10:20;99665.44;;;5.04;83.21
70323;BME280;57735;56.264;43.898;2023-03-25T02:12:51;99669.91;;;5.03;83.04
70323;BME280;57735;56.264;43.898;2023-03-25T02:15:22;99680.63;;;5.02;83.26
70323;BME280;57735;56.264;43.898;2023-03-25T02:17:57;99678.00;;;5.02;83.47
70323;BME280;57735;56.264;43.898;2023-03-25T02:47:14;99715.19;;;4.89;83.91
70323;BME280;57735;56.264;43.898;2023-03-25T02:49:56;99720.47;;;4.89;83.83
70323;BME280;57735;56.264;43.898;2023-03-25T02:52:29;99718.78;;;4.88;83.76
70323;BME280;57735;56.264;43.898;2023-03-25T02:55:02;99719.06;;;4.85;83.81
70323;BME280;57735;56.264;43.898;2023-03-25T02:57:40;99723.53;;;4.84;83.75
70323;BME280;57735;56.264;43.898;2023-03-25T03:00:15;99711.81;;;4.87;83.80
70323;BME280;57735;56.264;43.898;2023-03-25T03:02:58;99717.09;;;4.87;83.58
70323;BME280;57735;56.264;43.898;2023-03-25T03:05:30;99716.44;;;4.85;83.36
70323;BME280;57735;56.264;43.898;2023-03-25T03:10:44;99718.78;;;4.88;83.31
70323;BME280;57735;56.264;43.898;2023-03-25T03:13:22;99707.69;;;4.84;83.11
70323;BME280;57735;56.264;43.898;2023-03-25T03:21:38;99720.66;;;4.67;82.82
70323;BME280;57735;56.264;43.898;2023-03-25T03:29:36;99728.84;;;4.64;83.51
70323;BME280;57735;56.264;43.898;2023-03-25T03:32:31;99722.88;;;4.71;83.81
70323;BME280;57735;56.264;43.898;2023-03-25T03:35:33;99727.78;;;4.76;83.77
70323;BME280;57735;56.264;43.898;2023-03-25T03:37:58;99724.34;;;4.85;83.32
70323;BME280;57735;56.264;43.898;2023-03-25T03:40:32;99734.38;;;4.91;83.17
70323;BME280;57735;56.264;43.898;2023-03-25T03:43:05;99731.19;;;4.97;83.14
70323;BME280;57735;56.264;43.898;2023-03-25T03:45:39;99733.28;;;5.03;82.64
70323;BME280;57735;56.264;43.898;2023-03-25T03:48:16;99724.13;;;5.07;82.59
70323;BME280;57735;56.264;43.898;2023-03-25T03:50:49;99726.13;;;5.15;82.42
70323;BME280;57735;56.264;43.898;2023-03-25T03:53:24;99718.75;;;5.18;82.24
70323;BME280;57735;56.264;43.898;2023-03-25T03:56:03;99717.38;;;5.24;81.93
70323;BME280;57735;56.264;43.898;2023-03-25T03:58:40;99721.84;;;5.33;81.43
70323;BME280;57735;56.264;43.898;2023-03-25T04:04:19;99725.31;;;5.34;81.32
70323;BME280;57735;56.264;43.898;2023-03-25T04:12:19;99708.38;;;5.36;81.11
70323;BME280;57735;56.264;43.898;2023-03-25T04:14:52;99708.91;;;5.40;80.50
70323;BME280;57735;56.264;43.898;2023-03-25T04:17:22;99718.38;;;5.42;80.01
70323;BME280;57735;56.264;43.898;2023-03-25T04:19:53;99713.91;;;5.43;79.59
70323;BME280;57735;56.264;43.898;2023-03-25T04:22:24;99716.56;;;5.43;79.51
70323;BME280;57735;56.264;43.898;2023-03-25T04:24:54;99724.22;;;5.36;79.21
70323;BME280;57735;56.264;43.898;2023-03-25T04:27:25;99728.09;;;5.32;79.22
70323;BME280;57735;56.264;43.898;2023-03-25T04:29:58;99739.72;;;5.10;79.11
70323;BME280;57735;56.264;43.898;2023-03-25T04:32:30;99731.47;;;4.94;79.53
70323;BME280;57735;56.264;43.898;2023-03-25T04:35:01;99730.88;;;4.81;79.82
70323;BME280;57735;56.264;43.898;2023-03-25T04:37:35;99734.09;;;4.84;80.11
70323;BME280;57735;56.264;43.898;2023-03-25T04:40:06;99725.75;;;4.89;79.99
70323;BME280;57735;56.264;43.898;2023-03-25T04:42:37;99726.00;;;4.86;80.12
70323;BME280;57735;56.264;43.898;2023-03-25T04:45:10;99727.84;;;4.85;79.85
70323;BME280;57735;56.264;43.898;2023-03-25T04:47:46;99717.91;;;4.78;80.21
70323;BME280;57735;56.264;43.898;2023-03-25T04:50:18;99722.38;;;4.77;80.51
70323;BME280;57735;56.264;43.898;2023-03-25T04:52:50;99721.13;;;4.81;80.42
70323;BME280;57735;56.264;43.898;2023-03-25T04:55:22;99726.00;;;4.86;79.99
70323;BME280;57735;56.264;43.898;2023-03-25T04:57:53;99721.28;;;4.89;80.15
70323;BME280;57735;56.264;43.898;2023-03-25T05:00:23;99727.28;;;4.91;80.23
70323;BME280;57735;56.264;43.898;2023-03-25T05:02:54;99721.28;;;4.89;80.43
70323;BME280;57735;56.264;43.898;2023-03-25T05:05:25;99712.16;;;5.03;80.30
70323;BME280;57735;56.264;43.898;2023-03-25T05:07:55;99714.31;;;5.19;80.00
70323;BME280;57735;56.264;43.898;2023-03-25T05:10:28;99714.19;;;5.30;79.57
70323;BME280;57735;56.264;43.898;2023-03-25T05:12:59;99709.16;;;5.37;79.25
70323;BME280;57735;56.264;43.898;2023-03-25T05:15:30;99711.41;;;5.32;79.11
70323;BME280;57735;56.264;43.898;2023-03-25T05:18:08;99716.00;;;5.30;79.33
70323;BME280;57735;56.264;43.898;2023-03-25T05:20:40;99716.44;;;5.35;79.30
70323;BME280;57735;56.264;43.898;2023-03-25T05:23:11;99712.50;;;5.39;79.18
70323;BME280;57735;56.264;43.898;2023-03-25T05:25:46;99715.19;;;5.48;79.17
70323;BME280;57735;56.264;43.898;2023-03-25T05:28:17;99706.28;;;5.59;78.79
70323;BME280;57735;56.264;43.898;2023-03-25T05:30:47;99702.81;;;5.68;78.71
70323;BME280;57735;56.264;43.898;2023-03-25T05:33:18;99701.97;;;5.77;78.63
70323;BME280;57735;56.264;43.898;2023-03-25T05:35:49;99693.63;;;5.91;78.50
70323;BME280;57735;56.264;43.898;2023-03-25T05:38:19;99690.56;;;6.06;77.91
70323;BME280;57735;56.264;43.898;2023-03-25T05:40:50;99692.38;;;6.15;77.08
70323;BME280;57735;56.264;43.898;2023-03-25T05:43:21;99696.09;;;6.22;76.27
70323;BME280;57735;56.264;43.898;2023-03-25T05:45:51;99694.28;;;6.32;75.96
70323;BME280;57735;56.264;43.898;2023-03-25T05:48:22;99689.53;;;6.36;75.72
70323;BME280;57735;56.264;43.898;2023-03-25T05:50:55;99695.78;;;6.44;75.53
70323;BME280;57735;56.264;43.898;2023-03-25T05:53:26;99695.50;;;6.47;75.31
70323;BME280;57735;56.264;43.898;2023-03-25T05:56:00;99689.50;;;6.45;74.99
70323;BME280;57735;56.264;43.898;2023-03-25T05:58:33;99685.44;;;6.51;74.93
70323;BME280;57735;56.264;43.898;2023-03-25T06:01:04;99691.94;;;6.66;74.88
70323;BME280;57735;56.264;43.898;2023-03-25T06:03:35;99694.50;;;6.85;74.53
70323;BME280;57735;56.264;43.898;2023-03-25T06:06:09;99695.53;;;7.02;74.25
70323;BME280;57735;56.264;43.898;2023-03-25T06:08:52;99686.84;;;7.10;73.24
70323;BME280;57735;56.264;43.898;2023-03-25T06:11:24;99683.06;;;7.12;73.48
70323;BME280;57735;56.264;43.898;2023-03-25T06:13:55;99679.56;;;7.12;72.92
70323;BME280;57735;56.264;43.898;2023-03-25T06:16:25;99679.03;;;7.08;73.00
70323;BME280;57735;56.264;43.898;2023-03-25T06:18:56;99680.34;;;7.22;72.63
70323;BME280;57735;56.264;43.898;2023-03-25T06:21:31;99675.53;;;7.35;72.57
70323;BME280;57735;56.264;43.898;2023-03-25T06:24:02;99667.88;;;7.50;72.17
70323;BME280;57735;56.264;43.898;2023-03-25T06:26:32;99666.06;;;7.68;71.47
70323;BME280;57735;56.264;43.898;2023-03-25T06:29:03;99667.72;;;7.69;70.55
70323;BME280;57735;56.264;43.898;2023-03-25T06:31:37;99670.72;;;7.74;70.54
70323;BME280;57735;56.264;43.898;2023-03-25T06:34:08;99671.56;;;7.75;70.26
70323;BME280;57735;56.264;43.898;2023-03-25T06:36:38;99664.97;;;7.79;70.42
70323;BME280;57735;56.264;43.898;2023-03-25T06:39:09;99669.19;;;7.89;69.93
70323;BME280;57735;56.264;43.898;2023-03-25T06:41:39;99665.69;;;8.06;69.63
70323;BME280;57735;56.264;43.898;2023-03-25T06:44:10;99664.75;;;8.16;68.86
70323;BME280;57735;56.264;43.898;2023-03-25T06:46:40;99647.72;;;8.26;68.18
70323;BME280;57735;56.264;43.898;2023-03-25T06:49:11;99657.88;;;8.31;67.82
70323;BME280;57735;56.264;43.898;2023-03-25T06:51:41;99641.97;;;8.31;67.46
70323;BME280;57735;56.264;43.898;2023-03-25T06:54:12;99635.69;;;8.32;67.12
70323;BME280;57735;56.264;43.898;2023-03-25T06:56:42;99641.38;;;8.37;67.73
70323;BME280;57735;56.264;43.898;2023-03-25T06:59:15;99636.66;;;8.31;67.06
70323;BME280;57735;56.264;43.898;2023-03-25T07:01:46;99624.66;;;8.27;67.26
70323;BME280;57735;56.264;43.898;2023-03-25T07:04:16;99620.72;;;8.31;67.71
70323;BME280;57735;56.264;43.898;2023-03-25T07:06:47;99624.41;;;8.38;66.97
70323;BME280;57735;56.264;43.898;2023-03-25T07:09:17;99616.63;;;8.36;67.17
70323;BME280;57735;56.264;43.898;2023-03-25T07:11:48;99635.81;;;8.30;67.18
70323;BME280;57735;56.264;43.898;2023-03-25T07:14:18;99628.31;;;8.26;67.36
70323;BME280;57735;56.264;43.898;2023-03-25T07:16:49;99618.53;;;8.26;67.08
70323;BME280;57735;56.264;43.898;2023-03-25T07:19:22;99602.19;;;8.39;67.09
70323;BME280;57735;56.264;43.898;2023-03-25T07:21:55;99612.03;;;8.55;66.51
70323;BME280;57735;56.264;43.898;2023-03-25T07:24:25;99607.47;;;8.65;65.49
70323;BME280;57735;56.264;43.898;2023-03-25T07:26:56;99612.47;;;8.76;64.68
70323;BME280;57735;56.264;43.898;2023-03-25T07:29:26;99603.56;;;8.93;64.10
70323;BME280;57735;56.264;43.898;2023-03-25T07:31:57;99598.75;;;9.05;63.40
70323;BME280;57735;56.264;43.898;2023-03-25T07:34:29;99602.78;;;9.17;62.95
70323;BME280;57735;56.264;43.898;2023-03-25T07:37:00;99594.66;;;9.27;62.48
70323;BME280;57735;56.264;43.898;2023-03-25T07:39:37;99581.69;;;9.48;61.68
70323;BME280;57735;56.264;43.898;2023-03-25T07:42:10;99594.19;;;9.64;61.61
70323;BME280;57735;56.264;43.898;2023-03-25T07:44:41;99594.84;;;9.82;61.13
70323;BME280;57735;56.264;43.898;2023-03-25T07:47:11;99592.16;;;9.90;60.18
70323;BME280;57735;56.264;43.898;2023-03-25T07:49:42;99578.47;;;10.09;59.69
70323;BME280;57735;56.264;43.898;2023-03-25T07:52:13;99569.50;;;10.19;59.19
70323;BME280;57735;56.264;43.898;2023-03-25T07:54:43;99563.19;;;10.20;58.81
70323;BME280;57735;56.264;43.898;2023-03-25T07:57:14;99560.13;;;10.31;58.58
70323;BME280;57735;56.264;43.898;2023-03-25T07:59:52;99565.41;;;10.47;58.30
70323;BME280;57735;56.264;43.898;2023-03-25T08:02:23;99564.81;;;10.68;57.81
70323;BME280;57735;56.264;43.898;2023-03-25T08:04:53;99564.94;;;10.74;56.45
70323;BME280;57735;56.264;43.898;2023-03-25T08:07:25;99563.91;;;10.75;55.99
70323;BME280;57735;56.264;43.898;2023-03-25T08:09:57;99560.59;;;10.73;55.74
70323;BME280;57735;56.264;43.898;2023-03-25T08:12:28;99544.31;;;10.68;55.69
70323;BME280;57735;56.264;43.898;2023-03-25T08:15:01;99540.81;;;10.68;55.56
70323;BME280;57735;56.264;43.898;2023-03-25T08:17:31;99537.00;;;10.62;55.42
70323;BME280;57735;56.264;43.898;2023-03-25T08:20:02;99543.41;;;10.53;55.24
70323;BME280;57735;56.264;43.898;2023-03-25T08:22:35;99515.28;;;10.42;55.47
70323;BME280;57735;56.264;43.898;2023-03-25T08:25:05;99518.41;;;10.54;55.29
70323;BME280;57735;56.264;43.898;2023-03-25T08:27:36;99511.25;;;10.55;55.14
70323;BME280;57735;56.264;43.898;2023-03-25T08:30:07;99498.56;;;10.57;55.17
70323;BME280;57735;56.264;43.898;2023-03-25T08:32:39;99503.19;;;10.63;55.02
70323;BME280;57735;56.264;43.898;2023-03-25T08:35:09;99497.59;;;10.80;54.66
70323;BME280;57735;56.264;43.898;2023-03-25T08:37:40;99486.69;;;10.90;53.99
70323;BME280;57735;56.264;43.898;2023-03-25T08:40:10;99487.63;;;10.97;53.97
70323;BME280;57735;56.264;43.898;2023-03-25T08:42:42;99489.13;;;11.00;53.85
70323;BME280;57735;56.264;43.898;2023-03-25T08:45:13;99483.72;;;11.08;53.70
70323;BME280;57735;56.264;43.898;2023-03-25T08:47:46;99485.56;;;11.07;53.44
70323;BME280;57735;56.264;43.898;2023-03-25T08:50:17;99485.63;;;11.22;53.21
70323;BME280;57735;56.264;43.898;2023-03-25T08:52:47;99480.16;;;11.38;52.65
70323;BME280;57735;56.264;43.898;2023-03-25T08:55:18;99468.00;;;11.50;52.64
70323;BME280;57735;56.264;43.898;2023-03-25T08:57:48;99474.72;;;11.61;52.35
70323;BME280;57735;56.264;43.898;2023-03-25T09:00:19;99474.66;;;11.69;51.89
70323;BME280;57735;56.264;43.898;2023-03-25T09:02:53;99470.84;;;11.86;52.19
70323;BME280;57735;56.264;43.898;2023-03-25T09:05:24;99477.84;;;12.02;51.33
70323;BME280;57735;56.264;43.898;2023-03-25T09:07:54;99470.72;;;12.09;50.65
70323;BME280;57735;56.264;43.898;2023-03-25T09:10:25;99472.84;;;12.14;50.93
70323;BME280;57735;56.264;43.898;2023-03-25T09:12:56;99482.81;;;12.05;50.79
70323;BME280;57735;56.264;43.898;2023-03-25T09:15:26;99465.84;;;11.98;50.84
70323;BME280;57735;56.264;43.898;2023-03-25T09:17:57;99468.06;;;11.95;50.94
70323;BME280;57735;56.264;43.898;2023-03-25T09:20:27;99474.69;;;11.84;50.94
70323;BME280;57735;56.264;43.898;2023-03-25T09:22:58;99471.03;;;11.85;50.80
70323;BME280;57735;56.264;43.898;2023-03-25T09:25:29;99457.06;;;11.75;51.08
70323;BME280;57735;56.264;43.898;2023-03-25T09:27:59;99451.91;;;11.59;50.63
70323;BME280;57735;56.264;43.898;2023-03-25T09:30:30;99444.72;;;11.44;51.30
70323;BME280;57735;56.264;43.898;2023-03-25T09:33:01;99444.81;;;11.36;51.44
70323;BME280;57735;56.264;43.898;2023-03-25T09:35:31;99427.59;;;11.39;51.59
70323;BME280;57735;56.264;43.898;2023-03-25T09:38:02;99432.47;;;11.35;52.07
70323;BME280;57735;56.264;43.898;2023-03-25T09:40:35;99420.94;;;11.20;52.47
70323;BME280;57735;56.264;43.898;2023-03-25T09:43:07;99423.66;;;10.97;52.74
70323;BME280;57735;56.264;43.898;2023-03-25T09:45:47;99411.63;;;10.78;53.18
70323;BME280;57735;56.264;43.898;2023-03-25T09:50:48;99389.88;;;10.44;54.87
70323;BME280;57735;56.264;43.898;2023-03-25T09:53:23;99398.41;;;10.39;54.92
70323;BME280;57735;56.264;43.898;2023-03-25T09:55:55;99392.50;;;10.29;55.22
70323;BME280;57735;56.264;43.898;2023-03-25T09:58:35;99380.19;;;10.28;55.52
70323;BME280;57735;56.264;43.898;2023-03-25T10:06:31;99389.41;;;10.40;56.50
70323;BME280;57735;56.264;43.898;2023-03-25T10:09:15;99372.25;;;10.43;56.59
70323;BME280;57735;56.264;43.898;2023-03-25T10:12:01;99370.19;;;10.53;57.33
70323;BME280;57735;56.264;43.898;2023-03-25T10:17:16;99369.88;;;10.71;56.84
70323;BME280;57735;56.264;43.898;2023-03-25T10:22:43;99344.91;;;10.87;56.63
70323;BME280;57735;56.264;43.898;2023-03-25T10:25:21;99331.44;;;11.03;56.01
70323;BME280;57735;56.264;43.898;2023-03-25T10:27:54;99318.66;;;11.13;55.81
70323;BME280;57735;56.264;43.898;2023-03-25T10:30:27;99314.06;;;11.22;55.64
70323;BME280;57735;56.264;43.898;2023-03-25T10:33:01;99310.56;;;11.36;55.25
70323;BME280;57735;56.264;43.898;2023-03-25T10:35:34;99304.19;;;11.51;54.81
70323;BME280;57735;56.264;43.898;2023-03-25T10:38:14;99303.06;;;11.61;54.88
70323;BME280;57735;56.264;43.898;2023-03-25T10:40:48;99288.97;;;11.81;54.88
70323;BME280;57735;56.264;43.898;2023-03-25T10:45:57;99293.22;;;12.12;54.62
70323;BME280;57735;56.264;43.898;2023-03-25T10:48:29;99293.53;;;12.02;54.30
70323;BME280;57735;56.264;43.898;2023-03-25T10:53:31;99291.59;;;11.96;55.06
70323;BME280;57735;56.264;43.898;2023-03-25T10:56:03;99293.00;;;11.92;54.86
70323;BME280;57735;56.264;43.898;2023-03-25T10:58:36;99282.94;;;11.94;55.20
70323;BME280;57735;56.264;43.898;2023-03-25T11:01:11;99290.31;;;11.92;55.20
70323;BME280;57735;56.264;43.898;2023-03-25T11:03:43;99284.22;;;11.98;55.32
70323;BME280;57735;56.264;43.898;2023-03-25T11:06:21;99279.84;;;12.12;54.82
70323;BME280;57735;56.264;43.898;2023-03-25T11:11:35;99269.09;;;12.27;55.47
70323;BME280;57735;56.264;43.898;2023-03-25T11:14:11;99258.53;;;12.40;55.34
70323;BME280;57735;56.264;43.898;2023-03-25T11:16:43;99254.88;;;12.47;55.06
70323;BME280;57735;56.264;43.898;2023-03-25T11:19:21;99251.38;;;12.47;55.09
70323;BME280;57735;56.264;43.898;2023-03-25T11:21:53;99252.84;;;12.49;55.29
70323;BME280;57735;56.264;43.898;2023-03-25T11:24:26;99260.44;;;12.46;54.89
70323;BME280;57735;56.264;43.898;2023-03-25T11:26:59;99257.84;;;12.31;55.29
70323;BME280;57735;56.264;43.898;2023-03-25T11:29:30;99258.09;;;12.36;55.34
70323;BME280;57735;56.264;43.898;2023-03-25T11:32:14;99256.44;;;12.35;55.52
70323;BME280;57735;56.264;43.898;2023-03-25T11:34:48;99249.81;;;12.31;56.15
70323;BME280;57735;56.264;43.898;2023-03-25T11:37:20;99243.81;;;12.22;55.93
70323;BME280;57735;56.264;43.898;2023-03-25T11:39:54;99247.69;;;12.20;56.14
70323;BME280;57735;56.264;43.898;2023-03-25T11:42:26;99241.13;;;12.22;56.35
70323;BME280;57735;56.264;43.898;2023-03-25T11:44:58;99233.22;;;12.36;55.89
70323;BME280;57735;56.264;43.898;2023-03-25T11:47:33;99229.63;;;12.50;55.48
70323;BME280;57735;56.264;43.898;2023-03-25T11:50:06;99212.41;;;12.59;55.41
70323;BME280;57735;56.264;43.898;2023-03-25T11:52:47;99210.66;;;12.73;55.18
70323;BME280;57735;56.264;43.898;2023-03-25T11:55:24;99209.53;;;12.88;55.24
70323;BME280;57735;56.264;43.898;2023-03-25T11:57:59;99204.06;;;13.03;54.67
70323;BME280;57735;56.264;43.898;2023-03-25T12:00:38;99204.88;;;13.04;54.86
70323;BME280;57735;56.264;43.898;2023-03-25T12:05:55;99194.31;;;12.96;54.71
70323;BME280;57735;56.264;43.898;2023-03-25T12:08:42;99198.59;;;12.83;55.28
70323;BME280;57735;56.264;43.898;2023-03-25T12:11:19;99195.44;;;12.73;55.37
70323;BME280;57735;56.264;43.898;2023-03-25T12:22:12;99179.28;;;12.53;56.50
70323;BME280;57735;56.264;43.898;2023-03-25T12:29:55;99167.72;;;12.18;57.80
70323;BME280;57735;56.264;43.898;2023-03-25T12:37:53;99174.25;;;11.88;59.27
70323;BME280;57735;56.264;43.898;2023-03-25T12:43:05;99164.31;;;11.82;59.95
70323;BME280;57735;56.264;43.898;2023-03-25T12:50:55;99150.63;;;11.70;60.14
70323;BME280;57735;56.264;43.898;2023-03-25T12:58:44;99147.50;;;11.67;60.70
70323;BME280;57735;56.264;43.898;2023-03-25T13:09:01;99153.38;;;11.56;61.82
70323;BME280;57735;56.264;43.898;2023-03-25T13:14:19;99156.88;;;11.41;63.47
70323;BME280;57735;56.264;43.898;2023-03-25T13:16:51;99168.69;;;11.32;64.14
70323;BME280;57735;56.264;43.898;2023-03-25T13:19:25;99165.31;;;11.24;64.50
70323;BME280;57735;56.264;43.898;2023-03-25T13:22:04;99158.06;;;11.17;65.14
70323;BME280;57735;56.264;43.898;2023-03-25T13:24:53;99165.34;;;11.09;66.22
70323;BME280;57735;56.264;43.898;2023-03-25T13:27:24;99161.50;;;10.97;66.66
70323;BME280;57735;56.264;43.898;2023-03-25T13:30:00;99162.63;;;10.88;67.60
70323;BME280;57735;56.264;43.898;2023-03-25T13:32:37;99158.38;;;10.78;67.87
70323;BME280;57735;56.264;43.898;2023-03-25T13:35:18;99170.81;;;10.71;68.54
70323;BME280;57735;56.264;43.898;2023-03-25T13:37:52;99175.03;;;10.66;69.12
70323;BME280;57735;56.264;43.898;2023-03-25T13:40:26;99171.06;;;10.62;69.02
70323;BME280;57735;56.264;43.898;2023-03-25T13:42:59;99164.28;;;10.59;69.47
70323;BME280;57735;56.264;43.898;2023-03-25T13:48:15;99165.28;;;10.58;69.83
70323;BME280;57735;56.264;43.898;2023-03-25T13:50:48;99171.81;;;10.56;69.91
70323;BME280;57735;56.264;43.898;2023-03-25T14:01:35;99165.56;;;10.34;71.53
70323;BME280;57735;56.264;43.898;2023-03-25T14:04:16;99166.72;;;10.31;71.86
70323;BME280;57735;56.264;43.898;2023-03-25T14:15:14;99187.16;;;10.16;72.57
70323;BME280;57735;56.264;43.898;2023-03-25T14:17:49;99179.69;;;10.11;72.70
70323;BME280;57735;56.264;43.898;2023-03-25T14:20:34;99180.06;;;10.08;73.24
70323;BME280;57735;56.264;43.898;2023-03-25T14:23:06;99181.44;;;10.04;73.41
70323;BME280;57735;56.264;43.898;2023-03-25T14:25:45;99184.47;;;10.01;73.58
70323;BME280;57735;56.264;43.898;2023-03-25T14:28:18;99194.81;;;9.96;74.10
70323;BME280;57735;56.264;43.898;2023-03-25T14:31:34;99201.31;;;9.94;74.47
70323;BME280;57735;56.264;43.898;2023-03-25T14:39:58;99202.91;;;9.80;75.04
70323;BME280;57735;56.264;43.898;2023-03-25T14:44:41;99209.09;;;9.72;75.53
70323;BME280;57735;56.264;43.898;2023-03-25T14:50:04;99213.31;;;9.67;75.71
70323;BME280;57735;56.264;43.898;2023-03-25T14:55:08;99220.66;;;9.65;75.96
70323;BME280;57735;56.264;43.898;2023-03-25T14:57:40;99219.16;;;9.62;75.90
70323;BME280;57735;56.264;43.898;2023-03-25T15:00:19;99218.34;;;9.62;75.96
70323;BME280;57735;56.264;43.898;2023-03-25T15:02:57;99207.69;;;9.62;76.16
70323;BME280;57735;56.264;43.898;2023-03-25T15:05:29;99220.81;;;9.63;76.13
70323;BME280;57735;56.264;43.898;2023-03-25T15:13:07;99221.66;;;9.64;75.79
70323;BME280;57735;56.264;43.898;2023-03-25T15:18:56;99220.66;;;9.65;75.64
70323;BME280;57735;56.264;43.898;2023-03-25T15:24:02;99223.31;;;9.65;75.76
70323;BME280;57735;56.264;43.898;2023-03-25T15:26:39;99224.31;;;9.64;75.79
70323;BME280;57735;56.264;43.898;2023-03-25T15:29:23;99228.63;;;9.65;75.77
70323;BME280;57735;56.264;43.898;2023-03-25T15:37:22;99234.66;;;9.59;75.66
70323;BME280;57735;56.264;43.898;2023-03-25T15:42:56;99233.81;;;9.58;75.58
70323;BME280;57735;56.264;43.898;2023-03-25T15:45:31;99235.81;;;9.56;75.60
70323;BME280;57735;56.264;43.898;2023-03-25T15:51:41;99238.03;;;9.53;75.87
70323;BME280;57735;56.264;43.898;2023-03-25T15:56:20;99237.38;;;9.51;75.85
70323;BME280;57735;56.264;43.898;2023-03-25T15:58:57;99241.03;;;9.50;76.01
70323;BME280;57735;56.264;43.898;2023-03-25T16:01:35;99232.22;;;9.49;75.83
70323;BME280;57735;56.264;43.898;2023-03-25T16:06:57;99242.22;;;9.47;75.96
70323;BME280;57735;56.264;43.898;2023-03-25T16:09:40;99243.88;;;9.48;76.03
70323;BME280;57735;56.264;43.898;2023-03-25T16:12:20;99248.34;;;9.48;76.19
70323;BME280;57735;56.264;43.898;2023-03-25T16:14:52;99250.19;;;9.47;76.18
70323;BME280;57735;56.264;43.898;2023-03-25T16:17:24;99255.69;;;9.45;76.19
70323;BME280;57735;56.264;43.898;2023-03-25T16:19:57;99264.66;;;9.44;76.08
70323;BME280;57735;56.264;43.898;2023-03-25T16:22:32;99263.34;;;9.40;76.47
70323;BME280;57735;56.264;43.898;2023-03-25T16:25:10;99269.66;;;9.39;76.18